Time;durP1;ratioP1;P1;durP2;ratioP2;P2;SDS_P1;SDS_P2;PMS_P1;PMS_P2;Temp;Humidity;BMP_temperature;BMP_pressure;BME280_temperature;BME280_humidity;BME280_pressure;Samples;Min_cycle;Max_cycle;Signal;HPM_P1;HPM_P2
2020/12/14 00:02:17;;;;;;;8.10;6.27;;;;;;;4.03;99.41;98455.25;5070069;28;20199;-85
2020/12/14 00:04:44;;;;;;;6.83;5.50;;;;;;;4.06;99.95;98457.72;5080599;28;20226;-87
2020/12/14 00:07:12;;;;;;;6.03;5.43;;;;;;;4.09;99.14;98444.50;5067575;28;20556;-87
2020/12/14 00:09:42;;;;;;;5.60;4.80;;;;;;;4.08;99.44;98427.97;5061594;28;20422;-87
2020/12/14 00:12:10;;;;;;;6.17;5.40;;;;;;;4.06;99.60;98427.22;5070535;28;20202;-87
2020/12/14 00:14:37;;;;;;;5.00;4.43;;;;;;;3.98;99.15;98420.69;5064319;28;20192;-87
2020/12/14 00:17:05;;;;;;;6.50;5.90;;;;;;;3.66;99.74;98414.41;5070383;28;20200;-86
2020/12/14 00:19:33;;;;;;;5.60;5.00;;;;;;;3.78;100.00;98405.13;5086681;28;20207;-87
2020/12/14 00:22:00;;;;;;;6.83;5.93;;;;;;;3.79;100.00;98391.97;5077421;28;20542;-87
2020/12/14 00:24:27;;;;;;;5.80;5.20;;;;;;;3.72;100.00;98395.84;5067914;28;20249;-87
2020/12/14 00:26:54;;;;;;;6.97;5.73;;;;;;;3.73;100.00;98392.31;5067096;28;20206;-87
2020/12/14 00:29:22;;;;;;;6.43;5.83;;;;;;;3.63;100.00;98398.88;5049120;28;20647;-86
2020/12/14 00:31:53;;;;;;;6.33;5.67;;;;;;;3.70;100.00;98400.28;5065885;28;20198;-86
2020/12/14 00:34:21;;;;;;;7.70;6.40;;;;;;;3.59;100.00;98397.38;5052425;28;20283;-86
2020/12/14 00:37:03;;;;;;;8.80;5.93;;;;;;;3.56;100.00;98397.50;5084284;28;20206;-87
2020/12/14 00:39:31;;;;;;;7.93;6.90;;;;;;;3.41;100.00;98399.09;5069127;28;20222;-87
2020/12/14 00:41:58;;;;;;;5.70;5.13;;;;;;;3.51;100.00;98404.69;5046457;28;20286;-87
2020/12/14 00:44:28;;;;;;;8.90;7.07;;;;;;;3.36;100.00;98416.75;5085440;28;20207;-87
2020/12/14 00:46:55;;;;;;;8.53;6.57;;;;;;;3.40;100.00;98427.88;5085874;28;20196;-86
2020/12/14 00:49:23;;;;;;;8.37;7.57;;;;;;;3.41;100.00;98434.81;5087486;28;20229;-87
2020/12/14 00:51:50;;;;;;;9.47;7.50;;;;;;;3.14;100.00;98436.97;5079063;28;20198;-87
2020/12/14 00:54:18;;;;;;;8.97;7.63;;;;;;;2.98;100.00;98456.84;5069023;28;20205;-86
2020/12/14 00:56:45;;;;;;;9.53;7.60;;;;;;;2.93;100.00;98464.88;5069620;28;20202;-88
2020/12/14 00:59:12;;;;;;;6.70;6.10;;;;;;;3.14;100.00;98467.44;5069577;28;20354;-88
2020/12/14 01:01:39;;;;;;;9.23;8.33;;;;;;;2.86;100.00;98467.84;5076858;28;20224;-87
2020/12/14 01:04:07;;;;;;;10.13;8.07;;;;;;;2.80;100.00;98463.75;5085287;28;20649;-87
2020/12/14 01:06:34;;;;;;;10.43;8.13;;;;;;;2.78;100.00;98468.19;5049345;28;20676;-87
2020/12/14 01:09:01;;;;;;;10.27;8.00;;;;;;;2.74;100.00;98471.84;5069588;28;20199;-88
2020/12/14 01:11:29;;;;;;;9.13;7.87;;;;;;;2.80;100.00;98463.75;5085093;28;20200;-88
2020/12/14 01:13:56;;;;;;;7.93;6.47;;;;;;;2.98;100.00;98461.22;5088196;28;20209;-88
2020/12/14 01:16:24;;;;;;;9.07;7.90;;;;;;;2.85;100.00;98456.56;5082669;28;20251;-87
2020/12/14 01:18:53;;;;;;;7.47;6.50;;;;;;;2.72;100.00;98451.97;5076634;28;20238;-87
2020/12/14 01:21:22;;;;;;;8.53;7.03;;;;;;;2.63;100.00;98458.44;5068357;28;20295;-87
2020/12/14 01:23:49;;;;;;;10.23;7.30;;;;;;;2.69;100.00;98452.97;5052273;28;20209;-87
2020/12/14 01:26:17;;;;;;;7.03;5.70;;;;;;;2.90;100.00;98441.53;5067639;28;20235;-88
2020/12/14 01:28:45;;;;;;;5.90;4.80;;;;;;;2.98;100.00;98430.75;5068270;28;20607;-88
2020/12/14 01:31:13;;;;;;;6.87;5.27;;;;;;;3.03;100.00;98425.31;5031404;28;20233;-87
2020/12/14 01:33:40;;;;;;;9.33;6.33;;;;;;;2.70;100.00;98420.72;5087214;28;20546;-88
2020/12/14 01:36:08;;;;;;;8.67;7.33;;;;;;;2.74;100.00;98430.13;5057288;28;20209;-87
2020/12/14 01:38:35;;;;;;;7.90;6.57;;;;;;;2.72;100.00;98444.16;5076309;28;20638;-88
2020/12/14 01:41:03;;;;;;;7.13;6.17;;;;;;;2.69;100.00;98445.13;5086764;28;20616;-87
2020/12/14 01:43:30;;;;;;;6.90;6.30;;;;;;;2.49;100.00;98449.53;5067988;28;20286;-88
2020/12/14 01:45:58;;;;;;;6.17;5.57;;;;;;;2.58;100.00;98447.38;5070422;28;20230;-88
2020/12/14 01:48:28;;;;;;;7.60;6.80;;;;;;;2.22;100.00;98447.19;5085202;28;20208;-88
2020/12/14 01:50:55;;;;;;;8.93;7.63;;;;;;;2.25;100.00;98441.00;5090074;28;20250;-87
2020/12/14 01:53:23;;;;;;;7.80;6.80;;;;;;;2.12;100.00;98450.25;5055860;28;20209;-87
2020/12/14 01:55:54;;;;;;;9.40;6.90;;;;;;;2.17;100.00;98456.13;5051020;28;20237;-87
2020/12/14 01:58:22;;;;;;;7.30;6.60;;;;;;;2.39;100.00;98458.69;5089029;28;20300;-87
2020/12/14 02:00:49;;;;;;;6.83;6.13;;;;;;;2.54;100.00;98451.00;5089998;28;20293;-88
2020/12/14 02:03:18;;;;;;;5.43;4.93;;;;;;;2.59;100.00;98454.25;5071085;28;20208;-87
2020/12/14 02:05:45;;;;;;;6.83;5.60;;;;;;;2.60;100.00;98444.69;5081233;28;20226;-88
2020/12/14 02:08:13;;;;;;;6.57;4.90;;;;;;;2.56;100.00;98430.06;5068738;28;20192;-89
2020/12/14 02:10:40;;;;;;;6.43;5.70;;;;;;;2.27;100.00;98426.97;5071215;28;20258;-88
2020/12/14 02:13:07;;;;;;;7.60;6.83;;;;;;;2.30;100.00;98421.63;5083773;28;20197;-88
2020/12/14 02:15:34;;;;;;;6.47;5.40;;;;;;;2.41;100.00;98423.78;5086338;28;20192;-88
2020/12/14 02:18:01;;;;;;;7.07;4.83;;;;;;;2.46;100.00;98423.56;5066224;28;20198;-88
2020/12/14 02:20:29;;;;;;;6.83;5.60;;;;;;;2.44;100.00;98431.47;5087016;28;20204;-88
2020/12/14 02:22:57;;;;;;;5.80;5.20;;;;;;;2.56;100.00;98443.09;5085693;28;20237;-88
2020/12/14 02:25:28;;;;;;;8.03;5.80;;;;;;;2.56;100.00;98430.91;5067113;28;20217;-88
2020/12/14 02:27:55;;;;;;;6.83;5.03;;;;;;;2.61;100.00;98428.94;5087882;28;20219;-87
2020/12/14 02:30:22;;;;;;;6.77;4.70;;;;;;;2.71;100.00;98416.34;5077612;28;20291;-88
2020/12/14 02:32:49;;;;;;;6.07;5.43;;;;;;;2.74;100.00;98424.03;5089914;28;20216;-88
2020/12/14 02:35:17;;;;;;;7.03;6.10;;;;;;;2.67;100.00;98422.63;5089819;28;20204;-88
2020/12/14 02:37:44;;;;;;;8.33;6.83;;;;;;;2.54;100.00;98416.25;5069023;28;20195;-88
2020/12/14 02:40:11;;;;;;;7.17;6.47;;;;;;;2.45;100.00;98420.13;5091628;28;20220;-88
2020/12/14 02:42:39;;;;;;;6.07;5.40;;;;;;;2.49;100.00;98416.47;5071547;28;20598;-88
2020/12/14 02:45:06;;;;;;;5.40;4.90;;;;;;;2.61;100.00;98421.13;5090048;28;20319;-88
2020/12/14 02:47:33;;;;;;;8.27;5.63;;;;;;;2.67;100.00;98420.84;5063161;28;20248;-88
2020/12/14 02:50:01;;;;;;;7.43;6.63;;;;;;;2.51;100.00;98413.78;5079467;28;20321;-88
2020/12/14 02:52:28;;;;;;;8.73;7.23;;;;;;;2.28;100.00;98417.41;5084149;28;20208;-88
2020/12/14 02:54:55;;;;;;;7.90;6.20;;;;;;;2.14;100.00;98404.97;5085039;28;20284;-88
2020/12/14 02:57:22;;;;;;;6.33;5.73;;;;;;;2.24;100.00;98400.22;5088382;28;20552;-88
2020/12/14 02:59:50;;;;;;;8.53;7.43;;;;;;;2.25;100.00;98401.88;5087274;28;20670;-88
2020/12/14 03:02:18;;;;;;;10.40;7.33;;;;;;;2.08;100.00;98388.75;5091143;28;20198;-88
2020/12/14 03:04:45;;;;;;;8.90;6.70;;;;;;;1.80;100.00;98383.84;5062728;28;20300;-87
2020/12/14 03:07:13;;;;;;;8.73;6.87;;;;;;;1.93;100.00;98381.59;5071552;28;20242;-87
2020/12/14 03:09:40;;;;;;;7.77;6.97;;;;;;;1.79;100.00;98378.72;5087371;28;20207;-87
2020/12/14 03:12:07;;;;;;;9.50;6.83;;;;;;;1.81;100.00;98380.34;5068775;28;20300;-88
2020/12/14 03:14:34;;;;;;;11.43;7.87;;;;;;;1.84;100.00;98368.97;5069155;28;20573;-88
2020/12/14 03:17:02;;;;;;;9.60;7.60;;;;;;;1.93;100.00;98363.34;5070552;28;20214;-88
2020/12/14 03:19:29;;;;;;;6.43;5.47;;;;;;;2.05;100.00;98365.44;5086540;28;20284;-89
2020/12/14 03:21:56;;;;;;;8.37;7.37;;;;;;;2.06;100.00;98364.50;5071352;28;20208;-87
2020/12/14 03:24:23;;;;;;;8.30;6.10;;;;;;;2.08;100.00;98357.47;5078700;28;20242;-87
2020/12/14 03:26:51;;;;;;;8.40;7.13;;;;;;;2.03;100.00;98362.03;5065372;28;20612;-87
2020/12/14 03:29:19;;;;;;;8.30;6.87;;;;;;;2.01;100.00;98361.28;5071260;28;20233;-87
2020/12/14 03:31:46;;;;;;;10.00;7.30;;;;;;;2.01;100.00;98362.13;5086706;28;20716;-88
2020/12/14 03:34:14;;;;;;;9.57;7.77;;;;;;;1.79;100.00;98368.31;5081613;28;20647;-87
2020/12/14 03:36:41;;;;;;;7.43;6.27;;;;;;;1.77;100.00;98364.94;5064576;28;20215;-87
2020/12/14 03:39:09;;;;;;;9.23;7.63;;;;;;;1.85;100.00;98375.88;5080550;28;20193;-87
2020/12/14 03:41:36;;;;;;;8.97;6.97;;;;;;;1.97;100.00;98375.31;5089486;28;20207;-87
2020/12/14 03:44:03;;;;;;;7.03;6.33;;;;;;;1.95;100.00;98377.16;5078599;28;20240;-88
2020/12/14 03:46:31;;;;;;;8.53;6.83;;;;;;;1.56;100.00;98377.94;5070485;28;20226;-86
2020/12/14 03:49:00;;;;;;;5.70;5.10;;;;;;;1.76;100.00;98382.31;5089680;28;20232;-86
2020/12/14 03:51:30;;;;;;;6.43;5.07;;;;;;;1.97;100.00;98385.75;5064781;28;20282;-88
2020/12/14 03:53:58;;;;;;;7.63;6.57;;;;;;;2.06;100.00;98382.75;5076414;28;20216;-87
2020/12/14 03:56:28;;;;;;;7.17;6.43;;;;;;;1.72;100.00;98376.38;5088370;28;20204;-87
2020/12/14 03:58:56;;;;;;;6.03;5.17;;;;;;;1.71;100.00;98379.88;5089561;28;20199;-88
2020/12/14 04:01:26;;;;;;;8.37;6.30;;;;;;;1.71;100.00;98374.66;5042465;28;20228;-87
2020/12/14 04:03:54;;;;;;;6.37;5.23;;;;;;;1.60;100.00;98365.66;5086297;28;20197;-87
2020/12/14 04:06:22;;;;;;;8.93;6.30;;;;;;;1.37;100.00;98373.53;5083299;28;20220;-87
2020/12/14 04:08:52;;;;;;;8.47;6.70;;;;;;;1.52;100.00;98378.09;5080847;28;20219;-88
2020/12/14 04:11:20;;;;;;;9.23;7.20;;;;;;;1.53;100.00;98375.47;5087606;28;20470;-85
2020/12/14 04:13:47;;;;;;;8.27;6.10;;;;;;;1.48;100.00;98377.41;5058013;28;20223;-91
2020/12/14 04:16:15;;;;;;;6.67;5.20;;;;;;;1.61;100.00;98381.19;5067417;28;20201;-86
2020/12/14 04:18:42;;;;;;;6.43;5.83;;;;;;;1.57;100.00;98390.03;5069081;28;20212;-87
2020/12/14 04:21:09;;;;;;;11.07;9.37;;;;;;;1.55;100.00;98389.25;5075124;28;20239;-82
2020/12/14 04:23:37;;;;;;;8.27;6.77;;;;;;;1.69;100.00;98393.88;5081220;28;20196;-92
2020/12/14 04:26:05;;;;;;;9.57;7.03;;;;;;;1.52;100.00;98401.53;5085718;28;20239;-91
2020/12/14 04:28:33;;;;;;;6.80;5.83;;;;;;;1.43;100.00;98405.34;5071557;28;20197;-90
2020/12/14 04:31:00;;;;;;;7.00;6.23;;;;;;;1.56;100.00;98401.38;5069337;28;20213;-85
2020/12/14 04:33:27;;;;;;;9.37;7.13;;;;;;;1.60;100.00;98394.28;5088730;28;20255;-89
2020/12/14 04:35:55;;;;;;;6.30;5.70;;;;;;;1.69;100.00;98397.34;5071486;28;20213;-87
2020/12/14 04:38:22;;;;;;;7.63;5.50;;;;;;;1.72;100.00;98396.38;5044142;28;20280;-84
2020/12/14 04:40:49;;;;;;;6.10;4.80;;;;;;;1.59;100.00;98401.25;5054639;28;20554;-85
2020/12/14 04:43:17;;;;;;;6.67;5.47;;;;;;;1.68;100.00;98397.41;5086031;28;20211;-85
2020/12/14 04:45:46;;;;;;;7.10;6.40;;;;;;;1.68;100.00;98395.63;5052989;28;20642;-86
2020/12/14 04:48:14;;;;;;;6.37;4.90;;;;;;;1.82;100.00;98386.41;5046077;28;20228;-86
2020/12/14 04:50:41;;;;;;;5.30;4.80;;;;;;;1.91;100.00;98391.25;5063578;28;20764;-85
2020/12/14 04:53:08;;;;;;;6.07;4.90;;;;;;;1.98;100.00;98387.44;5066738;28;20212;-84
2020/12/14 04:55:36;;;;;;;6.90;6.10;;;;;;;1.83;100.00;98390.69;5064667;28;20723;-90
2020/12/14 04:58:05;;;;;;;8.43;7.33;;;;;;;1.61;100.00;98394.22;5053548;28;20301;-79
2020/12/14 05:00:33;;;;;;;8.60;6.90;;;;;;;1.71;100.00;98399.91;5079668;28;20553;-83
2020/12/14 05:03:01;;;;;;;5.70;5.10;;;;;;;1.79;100.00;98394.34;5082059;28;20204;-84
2020/12/14 05:05:28;;;;;;;5.53;5.00;;;;;;;1.84;100.00;98395.00;5072495;28;20310;-82
2020/12/14 05:07:56;;;;;;;8.53;6.37;;;;;;;1.83;100.00;98393.31;5070885;28;20205;-81
2020/12/14 05:10:26;;;;;;;6.40;4.93;;;;;;;1.90;100.00;98389.53;5040767;28;20204;-81
2020/12/14 05:12:53;;;;;;;6.10;5.33;;;;;;;1.96;100.00;98391.88;5075939;28;20232;-80
2020/12/14 05:15:23;;;;;;;5.27;4.70;;;;;;;1.99;100.00;98383.94;5083237;28;20489;-81
2020/12/14 05:17:53;;;;;;;7.50;6.77;;;;;;;1.88;100.00;98381.78;5015055;28;20234;-80
2020/12/14 05:20:21;;;;;;;9.93;7.17;;;;;;;1.83;100.00;98385.47;5043352;28;20201;-81
2020/12/14 05:22:58;;;;;;;6.97;6.27;;;;;;;1.90;100.00;98372.16;5052413;28;20609;-81
2020/12/14 05:25:29;;;;;;;8.50;7.17;;;;;;;1.95;100.00;98377.16;5058349;28;20590;-80
2020/12/14 05:28:11;;;;;;;8.20;7.40;;;;;;;1.92;100.00;98378.13;5051319;28;20196;-82
2020/12/14 05:30:41;;;;;;;8.90;6.60;;;;;;;1.99;100.00;98386.56;5029050;28;20201;-81
2020/12/14 05:33:10;;;;;;;7.80;6.50;;;;;;;2.00;100.00;98381.25;5043345;28;20224;-81
2020/12/14 05:35:39;;;;;;;11.23;6.70;;;;;;;1.99;100.00;98374.38;5051389;28;20228;-80
2020/12/14 05:38:11;;;;;;;10.13;6.50;;;;;;;2.03;100.00;98375.06;5074347;28;20881;-82
2020/12/14 05:40:38;;;;;;;8.33;6.97;;;;;;;2.04;100.00;98377.63;5059724;28;20212;-81
2020/12/14 05:43:10;;;;;;;7.73;6.33;;;;;;;2.07;100.00;98387.91;5058840;28;20208;-80
2020/12/14 05:45:38;;;;;;;8.73;6.40;;;;;;;2.12;100.00;98387.72;5059330;28;20247;-82
2020/12/14 05:48:21;;;;;;;7.13;6.23;;;;;;;2.13;100.00;98397.22;5077568;28;20663;-83
2020/12/14 05:50:49;;;;;;;7.80;6.17;;;;;;;2.15;100.00;98390.19;5067962;28;20483;-83
2020/12/14 05:53:20;;;;;;;8.40;6.70;;;;;;;2.20;100.00;98393.44;5083263;28;20839;-82
2020/12/14 05:55:47;;;;;;;7.87;6.80;;;;;;;2.18;100.00;98390.06;5082659;28;20509;-84
2020/12/14 05:58:16;;;;;;;10.27;6.87;;;;;;;2.21;100.00;98392.53;5062516;28;20200;-84
2020/12/14 06:00:45;;;;;;;8.47;6.50;;;;;;;2.23;100.00;98391.53;5068720;28;20211;-83
2020/12/14 06:03:12;;;;;;;7.60;5.83;;;;;;;2.24;100.00;98402.81;5065001;28;20213;-83
2020/12/14 06:05:42;;;;;;;7.53;6.03;;;;;;;2.24;100.00;98400.22;5060709;28;20209;-84
2020/12/14 06:08:33;;;;;;;5.50;4.90;;;;;;;2.24;100.00;98395.00;5044951;28;20722;-83
2020/12/14 06:11:04;;;;;;;7.07;5.90;;;;;;;2.21;100.00;98384.72;5043156;28;20257;-83
2020/12/14 06:13:32;;;;;;;7.90;5.67;;;;;;;2.24;100.00;98384.56;5064139;28;20200;-80
2020/12/14 06:16:00;;;;;;;7.83;6.27;;;;;;;2.15;100.00;98385.81;5046375;28;20307;-82
2020/12/14 06:18:33;;;;;;;6.83;5.87;;;;;;;2.15;100.00;98387.56;5062072;28;20276;-87
2020/12/14 06:21:00;;;;;;;7.33;6.60;;;;;;;2.25;100.00;98384.50;5077933;28;20494;-86
2020/12/14 06:23:40;;;;;;;6.80;5.80;;;;;;;2.25;100.00;98396.69;5081679;28;20205;-81
2020/12/14 06:26:08;;;;;;;6.47;5.77;;;;;;;2.24;100.00;98395.84;5052405;28;20721;-87
2020/12/14 06:28:35;;;;;;;7.57;6.20;;;;;;;2.26;100.00;98386.19;5060961;28;20291;-88
2020/12/14 06:31:03;;;;;;;9.10;6.73;;;;;;;2.26;100.00;98382.75;5063121;28;20213;-87
2020/12/14 06:33:35;;;;;;;7.70;5.73;;;;;;;2.26;100.00;98386.19;5068081;28;20216;-85
2020/12/14 06:36:16;;;;;;;10.53;7.87;;;;;;;2.22;100.00;98375.97;5068042;28;20216;-87
2020/12/14 06:38:45;;;;;;;9.33;7.03;;;;;;;2.29;100.00;98380.84;5075345;28;20290;-87
2020/12/14 06:41:15;;;;;;;8.67;6.83;;;;;;;2.36;100.00;98383.19;5085136;28;20242;-86
2020/12/14 06:43:43;;;;;;;8.40;6.00;;;;;;;2.31;100.00;98388.59;5041716;28;20806;-80
2020/12/14 06:46:11;;;;;;;8.73;7.33;;;;;;;2.28;100.00;98386.13;5063588;28;20559;-84
2020/12/14 06:48:41;;;;;;;8.37;7.43;;;;;;;2.31;100.00;98385.97;5082456;28;20298;-82
2020/12/14 06:51:10;;;;;;;12.10;7.60;;;;;;;2.23;100.00;98393.31;5066298;28;20254;-82
2020/12/14 06:53:40;;;;;;;7.47;6.57;;;;;;;2.29;100.00;98395.66;5079221;28;20637;-84
2020/12/14 06:56:09;;;;;;;8.27;6.67;;;;;;;2.16;100.00;98394.50;5067215;28;20258;-85
2020/12/14 06:58:40;;;;;;;6.67;5.53;;;;;;;2.29;100.00;98398.25;5086821;28;20216;-84
2020/12/14 07:01:31;;;;;;;10.63;7.57;;;;;;;2.27;100.00;98389.66;5057763;28;20201;-84
2020/12/14 07:03:58;;;;;;;8.13;6.37;;;;;;;2.27;100.00;98392.25;5086087;28;20201;-84
2020/12/14 07:06:28;;;;;;;7.93;6.87;;;;;;;2.31;100.00;98399.88;5069870;28;20233;-85
2020/12/14 07:09:27;;;;;;;8.20;7.00;;;;;;;2.25;100.00;98397.53;5084540;28;20611;-84
2020/12/14 07:11:56;;;;;;;8.13;6.53;;;;;;;2.27;100.00;98407.91;5075885;28;20208;-83
2020/12/14 07:14:30;;;;;;;9.87;6.83;;;;;;;2.32;100.00;98408.53;5067455;28;20196;-84
2020/12/14 07:16:58;;;;;;;8.20;6.37;;;;;;;2.31;100.00;98407.69;5085636;28;20219;-84
2020/12/14 07:19:37;;;;;;;9.23;7.67;;;;;;;2.30;100.00;98406.00;5075159;28;20209;-85
2020/12/14 07:22:06;;;;;;;8.93;7.50;;;;;;;2.27;100.00;98408.72;5072140;28;20223;-84
2020/12/14 07:24:35;;;;;;;11.47;9.30;;;;;;;2.28;100.00;98404.38;5063736;28;20215;-87
2020/12/14 07:27:03;;;;;;;10.00;7.73;;;;;;;2.30;100.00;98405.16;5047347;28;20225;-86
2020/12/14 07:29:30;;;;;;;11.20;8.50;;;;;;;2.34;100.00;98409.31;5046465;28;20644;-86
2020/12/14 07:32:03;;;;;;;11.03;8.20;;;;;;;2.44;100.00;98421.06;5057501;28;20806;-84
2020/12/14 07:34:30;;;;;;;10.47;7.37;;;;;;;2.50;100.00;98417.34;5047687;28;20242;-84
2020/12/14 07:37:08;;;;;;;;;;;;;;;;;;;;;
2020/12/14 07:39:46;;;;;;;11.97;7.43;;;;;;;2.69;100.00;98419.03;5073836;28;20270;-84
2020/12/14 07:42:23;;;;;;;11.00;7.63;;;;;;;2.67;100.00;98423.47;5065514;28;20279;-85
2020/12/14 07:44:50;;;;;;;13.20;7.87;;;;;;;2.78;100.00;98418.59;5048600;28;20221;-84
2020/12/14 07:47:20;;;;;;;13.47;9.10;;;;;;;2.88;100.00;98422.50;5079211;28;20294;-84
2020/12/14 07:49:48;;;;;;;11.07;8.17;;;;;;;2.92;100.00;98424.03;5050032;28;20735;-84
2020/12/14 07:52:26;;;;;;;12.83;8.50;;;;;;;3.01;100.00;98429.75;5083494;28;20228;-84
2020/12/14 07:54:59;;;;;;;12.47;9.03;;;;;;;3.07;100.00;98426.84;5085081;28;20219;-85
2020/12/14 07:57:31;;;;;;;12.37;8.60;;;;;;;3.25;100.00;98426.03;5073827;28;20645;-84
2020/12/14 07:59:59;;;;;;;10.20;8.70;;;;;;;3.41;100.00;98434.81;5073482;28;20205;-84
2020/12/14 08:02:28;;;;;;;12.10;8.77;;;;;;;3.51;100.00;98420.38;5085166;28;20213;-83
2020/12/14 08:05:03;;;;;;;13.80;9.93;;;;;;;3.65;99.46;98425.78;5063036;28;20201;-84
2020/12/14 08:07:37;;;;;;;12.53;9.57;;;;;;;3.84;99.39;98426.59;5083878;28;20384;-83
2020/12/14 08:10:06;;;;;;;13.23;9.83;;;;;;;3.92;99.04;98427.06;5061427;28;20232;-83
2020/12/14 08:12:40;;;;;;;10.73;8.17;;;;;;;4.19;98.78;98421.34;5073050;28;20669;-85
2020/12/14 08:15:10;;;;;;;9.27;8.23;;;;;;;4.05;97.82;98419.44;5041357;28;20236;-85
2020/12/14 08:17:40;;;;;;;14.77;9.20;;;;;;;4.22;97.37;98421.19;5065214;28;20321;-84
2020/12/14 08:20:23;;;;;;;12.90;9.23;;;;;;;4.67;95.70;98410.94;5078817;28;20682;-82
2020/12/14 08:22:50;;;;;;;11.90;7.90;;;;;;;4.68;95.33;98415.28;5062057;28;20215;-83
2020/12/14 08:25:20;;;;;;;11.37;8.67;;;;;;;4.70;94.00;98421.25;5062476;28;20282;-83
2020/12/14 08:27:52;;;;;;;13.80;8.37;;;;;;;4.63;95.09;98420.72;5053261;28;20224;-83
2020/12/14 08:30:21;;;;;;;10.90;8.73;;;;;;;4.89;94.11;98419.34;5082082;28;20213;-83
2020/12/14 08:33:07;;;;;;;9.80;8.20;;;;;;;4.72;95.19;98413.31;5051880;28;20217;-83
2020/12/14 08:35:35;;;;;;;8.50;7.60;;;;;;;5.12;94.58;98416.34;5067488;28;20244;-81
2020/12/14 08:38:05;;;;;;;18.70;8.63;;;;;;;5.20;92.73;98423.75;5086351;28;20369;-83
2020/12/14 08:40:33;;;;;;;8.57;7.67;;;;;;;5.00;91.61;98413.53;5055769;28;20230;-82
2020/12/14 08:43:11;;;;;;;10.37;7.97;;;;;;;5.06;92.57;98419.28;5053336;28;20296;-83
2020/12/14 08:45:55;;;;;;;9.83;7.70;;;;;;;5.10;92.27;98417.34;5029538;28;20576;-83
2020/12/14 08:48:22;;;;;;;11.87;8.20;;;;;;;5.15;91.11;98424.03;5047536;28;20630;-82
2020/12/14 08:50:49;;;;;;;9.60;7.43;;;;;;;5.23;91.36;98426.22;5065243;28;20263;-82
2020/12/14 08:53:23;;;;;;;10.07;7.90;;;;;;;5.54;90.13;98431.44;5065685;28;20529;-83
2020/12/14 08:55:50;;;;;;;9.90;8.13;;;;;;;5.61;89.78;98431.94;5065650;28;20905;-83
2020/12/14 08:58:18;;;;;;;10.17;8.37;;;;;;;5.40;91.01;98427.91;5080744;28;20256;-83
2020/12/14 09:00:45;;;;;;;10.17;8.10;;;;;;;5.50;89.34;98431.72;5081679;28;20200;-82
2020/12/14 09:03:13;;;;;;;9.57;7.93;;;;;;;5.49;90.29;98436.09;5063940;28;20581;-82
2020/12/14 09:05:40;;;;;;;11.17;8.33;;;;;;;5.74;89.01;98427.69;5080630;28;20207;-83
2020/12/14 09:08:14;;;;;;;10.27;8.93;;;;;;;5.79;87.67;98430.88;5062546;28;20221;-83
2020/12/14 09:10:42;;;;;;;9.17;8.23;;;;;;;5.74;88.43;98443.41;5063078;28;20215;-82
2020/12/14 09:13:09;;;;;;;9.47;8.50;;;;;;;5.80;87.34;98443.94;5066281;28;20235;-82
2020/12/14 09:15:53;;;;;;;10.10;7.83;;;;;;;5.85;87.05;98441.06;5083851;28;20203;-83
2020/12/14 09:18:20;;;;;;;10.03;7.47;;;;;;;6.01;86.70;98441.88;5066417;28;20577;-82
2020/12/14 09:20:47;;;;;;;9.43;8.10;;;;;;;5.89;86.54;98445.22;5065707;28;20793;-82
2020/12/14 09:23:19;;;;;;;9.53;8.00;;;;;;;6.16;87.16;98443.59;5071966;28;20195;-82
2020/12/14 09:25:46;;;;;;;9.47;7.90;;;;;;;6.13;85.95;98446.41;5083256;28;20220;-83
2020/12/14 09:28:13;;;;;;;9.50;7.70;;;;;;;6.38;86.69;98441.41;5065343;28;20261;-83
2020/12/14 09:30:41;;;;;;;8.50;7.63;;;;;;;6.18;84.64;98444.34;5049159;28;20246;-84
2020/12/14 09:33:08;;;;;;;9.73;7.90;;;;;;;6.39;84.74;98443.09;5064548;28;20318;-82
2020/12/14 09:35:37;;;;;;;9.27;7.60;;;;;;;6.21;84.22;98445.94;5081721;28;20215;-83
2020/12/14 09:38:04;;;;;;;9.57;7.90;;;;;;;6.45;84.88;98441.03;5065050;28;20233;-82
2020/12/14 09:40:31;;;;;;;8.13;7.33;;;;;;;6.57;84.38;98445.56;5063304;28;20290;-83
2020/12/14 09:42:58;;;;;;;12.50;7.53;;;;;;;6.50;84.00;98438.97;5059256;28;20246;-83
2020/12/14 09:45:28;;;;;;;12.10;8.33;;;;;;;6.54;84.68;98440.50;5081115;28;20351;-83
2020/12/14 09:47:58;;;;;;;9.67;7.77;;;;;;;6.64;84.20;98441.63;5056522;28;20763;-83
2020/12/14 09:50:28;;;;;;;8.97;8.07;;;;;;;6.63;83.51;98439.91;5050789;28;20250;-84
2020/12/14 09:52:56;;;;;;;8.93;7.50;;;;;;;6.69;83.78;98436.94;5051376;28;20270;-83
2020/12/14 09:55:24;;;;;;;8.43;7.37;;;;;;;6.73;83.19;98435.81;5082972;28;20658;-82
2020/12/14 09:57:51;;;;;;;9.33;7.53;;;;;;;7.01;82.30;98435.81;5084638;28;20198;-83
2020/12/14 10:00:19;;;;;;;9.70;7.40;;;;;;;6.87;82.21;98430.56;5077150;28;20794;-83
2020/12/14 10:02:58;;;;;;;9.07;8.03;;;;;;;6.95;82.31;98444.06;5052143;28;20689;-83
2020/12/14 10:05:36;;;;;;;9.50;7.53;;;;;;;6.82;82.54;98438.72;5085231;28;20205;-85
2020/12/14 10:08:03;;;;;;;8.37;6.93;;;;;;;7.00;81.92;98434.97;5077209;28;20247;-84
2020/12/14 10:10:30;;;;;;;8.40;7.20;;;;;;;7.00;82.02;98434.13;5069773;28;20299;-83
2020/12/14 10:13:01;;;;;;;7.63;6.40;;;;;;;7.16;82.13;98439.28;5088258;28;20204;-83
2020/12/14 10:15:28;;;;;;;8.00;6.90;;;;;;;7.11;82.51;98436.91;5069820;28;20533;-83
2020/12/14 10:17:55;;;;;;;7.93;6.23;;;;;;;7.18;81.75;98427.72;5083922;28;20663;-82
2020/12/14 10:20:23;;;;;;;8.13;6.23;;;;;;;7.09;82.52;98423.03;5086848;28;20667;-83
2020/12/14 10:22:50;;;;;;;7.63;6.83;;;;;;;7.12;81.53;98427.25;5086932;28;20241;-81
2020/12/14 10:25:19;;;;;;;8.10;7.13;;;;;;;7.23;81.15;98430.06;5077301;28;20318;-84
2020/12/14 10:27:47;;;;;;;8.47;6.77;;;;;;;7.29;82.05;98425.28;5086312;28;20709;-83
2020/12/14 10:30:14;;;;;;;7.03;6.30;;;;;;;7.27;81.48;98423.69;5086835;28;20303;-85
2020/12/14 10:32:41;;;;;;;7.57;6.40;;;;;;;7.43;81.65;98419.97;5068709;28;20201;-83
2020/12/14 10:35:18;;;;;;;8.57;6.93;;;;;;;7.52;80.75;98422.00;5068302;28;20257;-84
2020/12/14 10:37:46;;;;;;;9.50;6.20;;;;;;;7.51;81.31;98419.47;5086576;28;20209;-83
2020/12/14 10:40:13;;;;;;;7.87;7.03;;;;;;;7.14;80.71;98418.34;5086260;28;20192;-84
2020/12/14 10:42:41;;;;;;;7.77;6.97;;;;;;;7.28;81.66;98417.47;5085915;28;20285;-84
2020/12/14 10:45:09;;;;;;;7.10;6.40;;;;;;;7.34;81.42;98420.56;5076340;28;20245;-84
2020/12/14 10:47:39;;;;;;;6.60;5.90;;;;;;;7.43;81.76;98417.34;5066407;28;20650;-86
2020/12/14 10:50:15;;;;;;;6.30;5.67;;;;;;;7.55;81.29;98406.03;5057189;28;20560;-84
2020/12/14 10:52:43;;;;;;;8.10;6.73;;;;;;;7.46;80.42;98411.91;5060232;28;20207;-86
2020/12/14 10:55:11;;;;;;;8.20;6.37;;;;;;;7.42;81.10;98405.16;5063456;28;20619;-85
2020/12/14 10:57:39;;;;;;;7.07;6.40;;;;;;;7.24;81.61;98406.31;5054603;28;20296;-86
2020/12/14 11:00:07;;;;;;;8.27;6.37;;;;;;;7.25;81.39;98392.22;5066804;28;20475;-84
2020/12/14 11:02:35;;;;;;;7.23;6.37;;;;;;;7.24;81.44;98393.16;5057269;28;20283;-85
2020/12/14 11:05:04;;;;;;;6.87;6.20;;;;;;;7.18;80.52;98390.94;5049051;28;20676;-84
2020/12/14 11:07:32;;;;;;;7.80;6.40;;;;;;;7.49;80.74;98403.78;5066348;28;20285;-86
2020/12/14 11:09:59;;;;;;;7.47;6.27;;;;;;;7.33;81.46;98395.22;5044416;28;20208;-85
2020/12/14 11:12:28;;;;;;;8.70;6.63;;;;;;;7.39;81.46;98388.72;5034072;28;20203;-84
2020/12/14 11:14:55;;;;;;;6.93;6.20;;;;;;;7.34;81.63;98403.94;5060892;28;20615;-83
2020/12/14 11:17:22;;;;;;;7.17;5.87;;;;;;;7.25;81.77;98396.63;5065872;28;20231;-84
2020/12/14 11:19:49;;;;;;;7.40;6.67;;;;;;;7.47;80.76;98387.28;5038506;28;20287;-83
2020/12/14 11:22:17;;;;;;;7.23;6.47;;;;;;;7.40;81.26;98380.75;5048778;28;20694;-83
2020/12/14 11:24:44;;;;;;;7.03;6.33;;;;;;;7.47;80.27;98382.03;5048742;28;20930;-84
2020/12/14 11:27:18;;;;;;;7.03;6.30;;;;;;;7.70;80.59;98377.06;5063041;28;20228;-84
2020/12/14 11:29:46;;;;;;;7.90;6.07;;;;;;;7.62;80.54;98379.34;5077955;28;20207;-83
2020/12/14 11:32:13;;;;;;;8.00;6.87;;;;;;;7.56;81.06;98384.06;5063430;28;20210;-83
2020/12/14 11:34:41;;;;;;;7.40;6.33;;;;;;;7.51;80.41;98382.69;5055310;28;20503;-83
2020/12/14 11:37:08;;;;;;;6.93;6.33;;;;;;;7.68;80.59;98376.31;5062295;28;20550;-82
2020/12/14 11:39:36;;;;;;;7.43;6.00;;;;;;;7.67;80.64;98366.72;5069369;28;20353;-83
2020/12/14 11:42:06;;;;;;;6.77;6.07;;;;;;;7.86;81.18;98364.59;5062657;28;20207;-82
2020/12/14 11:44:34;;;;;;;7.70;6.90;;;;;;;7.68;80.69;98368.44;5063627;28;20211;-82
2020/12/14 11:47:02;;;;;;;7.43;6.40;;;;;;;7.54;80.83;98362.31;5086055;28;20219;-85